Nearby METAR Reports

 

KSJC - San Jose, California, USA
Distance from station: NE 9mi, 14km
Updated: Mon, 28-Sep-2020 11:53pm PDT
Mostly cloudy
Mostly cloudy
 Wind from calm
Wind: Calm
Temperature: 70°F , 21°C
Dew Point: 54°F , 12°C
Humidity: 57%
Barometer: 29.95 inHg , 1014.2 hPa
Clouds: Mostly cloudy
Visibility: 10 miles , 16 km
Cloud details: Partly cloudy 4500 ft
Mostly cloudy 6500 ft
2020/09/29 06:53 KSJC 290653Z 00000KT 10SM SCT045 BKN065 21/12 A2995 RMK AO2 SLP142 FU SCT045 FU BKN065 LAST T02060122
KNUQ - Moffett Nas/Mtn, California, USA
Distance from station: N 9mi, 14km
Updated: Tue, 29-Sep-2020 12:15am PDT
Mostly cloudy
Mostly cloudy
 Wind from calm
Wind: Calm
Temperature: 68°F , 20°C
Dew Point: 61°F , 16°C
Humidity: 78%
Barometer: 29.96 inHg , 1014.6 hPa
Clouds: Mostly cloudy
Visibility: 10 miles , 16 km
Cloud details: Few Clouds 1400 ft
Partly cloudy 2000 ft
Mostly cloudy 2800 ft
2020/09/29 07:15 KNUQ 290715Z AUTO 00000KT 10SM FEW014 SCT020 BKN028 20/16 A2996 RMK AO2
 
KPAO - Palo Alto, California, USA
Distance from station: NNW 14mi, 23km
Updated: Mon, 28-Sep-2020 6:47pm PDT
NOT Current
Smoke, Clear
Smoke, Clear
 Wind from NNW
Wind: NNW 9 mph , 15 km/h
Temperature: 73°F , 23°C
Dew Point: 61°F , 16°C
Humidity: 65%
Barometer: 29.86 inHg , 1011.2 hPa
Summary: Smoke
Clouds: Clear
Visibility: 10 miles , 16 km
2020/09/29 01:47 KPAO 290147Z 33008KT 10SM FU SKC 23/16 A2986 RMK LAST
KRHV - San Jose/Reid, California, USA
Distance from station: ENE 12mi, 19km
Updated: Mon, 28-Sep-2020 9:47pm PDT
NOT Current
Clear
Clear
 Wind from W
Wind: W 3 mph , 6 km/h
Temperature: 73°F , 23°C
Dew Point: 61°F , 16°C
Humidity: 65%
Barometer: 29.94 inHg , 1013.9 hPa
Clouds: Clear
Visibility: 10 miles , 16 km
2020/09/29 04:47 KRHV 290447Z 27003KT 10SM SKC 23/16 A2994 RMK LAST
 
KOAK - Oakland, California, USA
Distance from station: NNW 31mi, 50km
Updated: Mon, 28-Sep-2020 11:53pm PDT
Partly cloudy
Partly cloudy
 Wind from N
Wind: N 3 mph , 6 km/h
Temperature: 63°F , 17°C
Dew Point: 57°F , 14°C
Humidity: 83%
Barometer: 29.96 inHg , 1014.6 hPa
Clouds: Partly cloudy
Visibility: 10 miles , 16 km
Cloud details: Few Clouds 700 ft
Partly cloudy 20000 ft
2020/09/29 06:53 KOAK 290653Z 35003KT 10SM FEW007 SCT200 17/14 A2996 RMK AO2 SLP143 T01720139
KSQL - San Carlos Airpo, California, USA
Distance from station: NW 21mi, 34km
Updated: Tue, 29-Sep-2020 12:15am PDT
Partly cloudy
Partly cloudy
 Wind from calm
Wind: Calm
Temperature: 66°F , 19°C
Dew Point: 61°F , 16°C
Humidity: 83%
Barometer: 29.96 inHg , 1014.6 hPa
Clouds: Partly cloudy
Visibility: 10 miles , 16 km
Cloud details: Partly cloudy 4300 ft
2020/09/29 07:15 KSQL 290715Z AUTO 00000KT 10SM SCT043 19/16 A2996 RMK AO2
 
KSFO - San Francisco, California, USA
Distance from station: NW 30mi, 49km
Updated: Mon, 28-Sep-2020 11:56pm PDT
Few Clouds
Few Clouds
 Wind from WNW
Wind: WNW 13 mph , 20 km/h
Temperature: 61°F , 16°C
Dew Point: 55°F , 13°C
Humidity: 83%
Barometer: 29.95 inHg , 1014.2 hPa
Clouds: Few Clouds
Visibility: 10 miles , 16 km
Cloud details: Few Clouds 1000 ft
Few Clouds 20000 ft
2020/09/29 06:56 KSFO 290656Z 29011KT 10SM FEW010 FEW200 16/13 A2995 RMK AO2 SLP141 T01560128
KE16 - San Martin, California, USA
Distance from station: ESE 27mi, 43km
Updated: Tue, 29-Sep-2020 12:00am PDT

 Wind from calm
Wind: Calm
Temperature: 59°F , 15°C
Dew Point: 55°F , 13°C
Humidity: 88%
Barometer: 30.00 inHg , 1015.9 hPa
Visibility: 10 miles , 16 km
2020/09/29 07:00 KE16 290700Z AUTO 00000KT 10SM 15/13 A3000 RMK AO2 PWINO PNO
 
KWVI - Watsonville, California, USA
Distance from station: SSE 27mi, 44km
Updated: Mon, 28-Sep-2020 11:53pm PDT
Mist, Overcast
Mist, Overcast
 Wind from calm
Wind: Calm
Temperature: 57°F , 14°C
Dew Point: 57°F , 14°C
Humidity: 100%
Barometer: 29.98 inHg , 1015.2 hPa
Summary: Mist
Clouds: Overcast
Visibility: 6 miles , 10 km
Cloud details: Overcast 200 ft
2020/09/29 06:53 KWVI 290653Z AUTO 00000KT 6SM BR OVC002 14/14 A2998 RMK AO2 SLP151 T01440139
KHAF - Half Moon Bay, California, USA
Distance from station: WNW 31mi, 50km
Updated: Tue, 29-Sep-2020 12:15am PDT
Mist, Overcast
Mist, Overcast
 Wind from SSE
Wind: SSE 8 mph , 13 km/h
Temperature: 55°F , 13°C
Dew Point: 55°F , 13°C
Humidity: 100%
Barometer: 29.98 inHg , 1015.2 hPa
Summary: Mist
Clouds: Overcast
Visibility: 3/4 mile , 1.2 km
Cloud details: Overcast 200 ft
2020/09/29 07:15 KHAF 290715Z AUTO 15007KT 3/4SM BR OVC002 13/13 A2998 RMK AO2
 
KHWD - Hayward, California, USA
Distance from station: N 28mi, 44km
Updated: Mon, 28-Sep-2020 11:54pm PDT
Clear
Clear
 Wind from NNW
Wind: NNW 3 mph , 6 km/h
Temperature: 66°F , 19°C
Dew Point: 54°F , 12°C
Humidity: 64%
Barometer: 29.95 inHg , 1014.2 hPa
Clouds: Clear
Visibility: 10 miles , 16 km
2020/09/29 06:54 KHWD 290654Z 33003KT 10SM CLR 19/12 A2995 RMK AO2 SLP150 T01890122
KLVK - Livermore, California, USA
Distance from station: NNE 31mi, 51km
Updated: Mon, 28-Sep-2020 11:53pm PDT
Few Clouds
Few Clouds
 Wind from calm
Wind: Calm
Temperature: 72°F , 22°C
Dew Point: 37°F , 3°C
Humidity: 29%
Barometer: 29.94 inHg , 1013.9 hPa
Clouds: Few Clouds
Visibility: 10 miles , 16 km
Cloud details: Few Clouds 6000 ft
2020/09/29 06:53 KLVK 290653Z AUTO 00000KT 10SM FEW060 22/03 A2994 RMK AO2 SLP132 T02170028